Rawlins Municipal Harvey Field
KRWL : rendu visible

Aérodrome :











RETROUVEZ-NOUS SUR...

 
LOGIN :

S'inscrire | Disclaimer

   EN    FR    IT 

 









Légende :    VFR   VFR Marginal   IFR   IFR Intensif   IFR Très Intensif
Visi : 
Plafond : 
>= 8 km
>= 3000ft
5 à 8 km
1000 à 3000 ft
1500m à 5 km
500 à 1000 ft
800 à 1500m
200 à 500 ft
< 800m
< 200 ft
Symboles :   Orages  Brouillard  Fortes neiges  Fortes précipitations  Vent > 20 kt






- Altitude de l'aérodrome : 6813 ft


KRWL - Rawlins Municipal Harvey Field

DERNIER METAR :
  • 081253Z AUTO 25012KT 10SM CLR 02/M03 A3013 RMK AO2 SLP166 T00221033

METARs EXPIRÉS :
  • 081153Z AUTO 27007KT 10SM CLR 03/M03 A3011 RMK AO2 SLP155 T00281033 10050 20000 53008
  • 081053Z AUTO 25011KT 10SM CLR 04/M03 A3010 RMK AO2 SLP146 T00391028
  • 080953Z AUTO 27012KT 10SM FEW085 04/M03 A3010 RMK AO2 SLP143 T00391033

TAF KRWL
Valide du 08 à 12h jusqu'au 09 à 12h UTC


081136Z 0812/0912 27011KT P6SM OVC100
FM081900 27013G20KT P6SM SCT100
FM090200 35006KT P6SM SKC



MET'MAP, la Météo Aéronautique d'un coup d'oeil ! - Copyright ORBIFLY Décembre 2007 - Disclaimer

ORBIFLY MET'MAP TEAM :

Programmation & Développement : Alexandra Zaïnal
Sur une idée originale de : Baudouin d'Aumeries
Assistance à la programmation : Marc-Olivier Méhu
Soutien technique & logistique : Manuel Goepfert

Contact : metmap@orbifly.com




SOURCES & CREDITS :

   NOAA       Earth
Advisory